createdAt,value
2019-05-18T00:01:18.653Z,8.80
2019-05-18T00:02:55.832Z,8.80
2019-05-18T00:04:32.743Z,9.03
2019-05-18T00:06:11.626Z,9.57
2019-05-18T00:07:48.187Z,9.17
2019-05-18T00:09:25.604Z,9.67
2019-05-18T00:11:02.187Z,8.80
2019-05-18T00:12:39.496Z,8.90
2019-05-18T00:14:16.018Z,9.53
2019-05-18T00:15:53.300Z,8.80
2019-05-18T00:17:29.915Z,8.70
2019-05-18T00:19:07.235Z,8.00
2019-05-18T00:20:43.842Z,9.23
2019-05-18T00:22:21.118Z,9.50
2019-05-18T00:24:00.384Z,9.00
2019-05-18T00:25:38.773Z,9.10
2019-05-18T00:27:15.225Z,9.67
2019-05-18T00:28:52.487Z,9.60
2019-05-18T00:30:29.004Z,9.23
2019-05-18T00:32:06.283Z,8.40
2019-05-18T00:33:42.683Z,8.50
2019-05-18T00:35:20.028Z,8.77
2019-05-18T00:36:56.417Z,9.50
2019-05-18T00:38:33.618Z,9.60
2019-05-18T00:40:11.309Z,8.87
2019-05-18T00:41:48.477Z,9.17
2019-05-18T00:43:25.088Z,9.37
2019-05-18T00:45:02.368Z,9.47
2019-05-18T00:46:39.102Z,10.20
2019-05-18T00:48:16.196Z,9.73
2019-05-18T00:49:52.664Z,10.47
2019-05-18T00:51:29.865Z,10.17
2019-05-18T00:53:07.360Z,9.80
2019-05-18T00:54:44.707Z,9.67
2019-05-18T00:56:21.143Z,9.37
2019-05-18T00:57:58.423Z,9.00
2019-05-18T00:59:34.951Z,9.17
2019-05-18T01:01:12.594Z,9.10
2019-05-18T01:02:49.107Z,9.70
2019-05-18T01:04:26.808Z,8.60
2019-05-18T01:06:03.349Z,8.73
2019-05-18T01:07:40.574Z,8.33
2019-05-18T01:09:17.056Z,8.20
2019-05-18T01:10:54.297Z,7.83
2019-05-18T01:12:30.831Z,7.13
2019-05-18T01:14:08.170Z,7.27
2019-05-18T01:15:44.703Z,7.10
2019-05-18T01:17:21.970Z,7.20
2019-05-18T01:18:58.438Z,6.63
2019-05-18T01:20:35.877Z,7.00
2019-05-18T01:22:12.239Z,7.47
2019-05-18T01:23:49.416Z,7.17
2019-05-18T01:25:25.867Z,6.80
2019-05-18T01:27:03.120Z,7.10
2019-05-18T01:28:39.574Z,7.03
2019-05-18T01:30:17.514Z,7.10
2019-05-18T01:31:53.954Z,6.70
2019-05-18T01:33:31.320Z,7.13
2019-05-18T01:35:09.223Z,7.80
2019-05-18T01:36:46.303Z,7.27
2019-05-18T01:38:22.729Z,10.70
2019-05-18T01:40:00.020Z,6.87
2019-05-18T01:41:36.379Z,7.30
2019-05-18T01:43:13.554Z,6.63
2019-05-18T01:44:49.923Z,7.33
2019-05-18T01:46:27.624Z,7.40
2019-05-18T01:48:13.152Z,7.07
2019-05-18T01:49:43.024Z,7.17
2019-05-18T01:51:19.378Z,7.00
2019-05-18T01:52:56.575Z,6.87
2019-05-18T01:54:33.191Z,6.70
2019-05-18T01:56:10.532Z,7.27
2019-05-18T01:57:46.891Z,6.57
2019-05-18T01:59:23.995Z,6.73
2019-05-18T02:01:00.528Z,7.30
2019-05-18T02:02:37.756Z,7.43
2019-05-18T02:04:14.134Z,6.93
2019-05-18T02:05:51.356Z,7.17
2019-05-18T02:07:27.809Z,7.53
2019-05-18T02:09:06.960Z,7.40
2019-05-18T02:10:43.499Z,7.43
2019-05-18T02:12:20.817Z,7.30
2019-05-18T02:13:57.418Z,7.40
2019-05-18T02:15:34.698Z,6.83
2019-05-18T02:17:11.206Z,7.77
2019-05-18T02:18:48.383Z,7.43
2019-05-18T02:20:24.748Z,7.23
2019-05-18T02:22:01.948Z,6.90
2019-05-18T02:23:38.682Z,7.10
2019-05-18T02:25:16.827Z,6.87
2019-05-18T02:26:53.335Z,7.10
2019-05-18T02:28:30.687Z,6.80
2019-05-18T02:30:10.507Z,6.70
2019-05-18T02:31:47.611Z,7.03
2019-05-18T02:33:23.912Z,7.00
2019-05-18T02:35:00.482Z,6.80
2019-05-18T02:36:37.840Z,6.70
2019-05-18T02:38:15.920Z,6.70
2019-05-18T02:39:53.924Z,7.03
2019-05-18T02:41:30.492Z,6.80
2019-05-18T02:43:07.528Z,6.50
2019-05-18T02:44:43.925Z,7.03
2019-05-18T02:46:21.172Z,6.30
2019-05-18T02:47:57.540Z,7.07
2019-05-18T02:49:34.650Z,7.23
2019-05-18T02:51:11.893Z,6.67
2019-05-18T02:52:49.338Z,7.77
2019-05-18T02:54:26.176Z,7.50
2019-05-18T02:56:03.423Z,7.63
2019-05-18T02:57:39.960Z,7.80
2019-05-18T02:59:17.240Z,8.10
2019-05-18T03:00:53.846Z,8.73
2019-05-18T03:02:31.187Z,8.30
2019-05-18T03:04:07.785Z,8.73
2019-05-18T03:05:46.056Z,7.97
2019-05-18T03:07:25.234Z,9.37
2019-05-18T03:09:02.607Z,9.30
2019-05-18T03:10:38.953Z,9.33
2019-05-18T03:12:16.196Z,9.90
2019-05-18T03:13:52.120Z,9.77
2019-05-18T03:15:29.462Z,10.07
2019-05-18T03:17:05.988Z,10.20
2019-05-18T03:18:43.255Z,10.00
2019-05-18T03:20:19.721Z,11.07
2019-05-18T03:22:00.723Z,10.20
2019-05-18T03:23:35.137Z,10.80
2019-05-18T03:25:12.796Z,10.70
2019-05-18T03:26:49.172Z,10.40
2019-05-18T03:28:26.768Z,9.50
2019-05-18T03:30:04.502Z,9.60
2019-05-18T03:31:41.665Z,9.17
2019-05-18T03:33:18.137Z,9.87
2019-05-18T03:34:55.168Z,9.33
2019-05-18T03:36:31.823Z,9.73
2019-05-18T03:38:09.135Z,9.47
2019-05-18T03:39:45.572Z,9.10
2019-05-18T03:41:22.816Z,8.60
2019-05-18T03:42:59.370Z,8.80
2019-05-18T03:44:36.537Z,8.83
2019-05-18T03:46:13.007Z,7.83
2019-05-18T03:47:50.352Z,8.23
2019-05-18T03:49:27.834Z,7.47
2019-05-18T03:51:05.626Z,7.00
2019-05-18T03:52:42.016Z,7.43
2019-05-18T03:54:19.226Z,6.60
2019-05-18T03:55:55.706Z,6.33
2019-05-18T03:57:32.874Z,6.37
2019-05-18T03:59:09.305Z,5.97
2019-05-18T04:00:46.785Z,5.80
2019-05-18T04:02:23.386Z,6.57
2019-05-18T04:04:00.908Z,6.13
2019-05-18T04:05:37.372Z,7.07
2019-05-18T04:07:14.478Z,6.00
2019-05-18T04:08:50.918Z,6.13
2019-05-18T04:10:29.484Z,6.70
2019-05-18T04:12:05.919Z,7.27
2019-05-18T04:13:43.192Z,5.73
2019-05-18T04:15:19.524Z,6.30
2019-05-18T04:16:57.539Z,6.27
2019-05-18T04:18:34.716Z,5.83
2019-05-18T04:20:11.572Z,6.27
2019-05-18T04:21:48.834Z,6.23
2019-05-18T04:23:25.366Z,5.90
2019-05-18T04:25:02.799Z,6.00
2019-05-18T04:26:39.635Z,5.83
2019-05-18T04:28:16.671Z,5.50
2019-05-18T04:29:53.091Z,5.63
2019-05-18T04:31:32.377Z,5.40
2019-05-18T04:33:08.427Z,5.73
2019-05-18T04:34:45.603Z,5.90
2019-05-18T04:36:22.033Z,6.17
2019-05-18T04:38:00.264Z,5.57
2019-05-18T04:39:36.737Z,5.80
2019-05-18T04:41:13.916Z,6.07
2019-05-18T04:42:50.675Z,6.67
2019-05-18T04:44:27.217Z,5.53
2019-05-18T04:46:03.582Z,5.30
2019-05-18T04:47:40.961Z,6.70
2019-05-18T04:49:17.341Z,6.43
2019-05-18T04:50:54.612Z,6.53
2019-05-18T04:52:31.416Z,5.63
2019-05-18T04:54:08.659Z,6.00
2019-05-18T04:55:45.023Z,5.67
2019-05-18T04:57:22.561Z,5.70
2019-05-18T04:58:59.283Z,6.00
2019-05-18T05:00:37.715Z,5.40
2019-05-18T05:02:14.737Z,6.27
2019-05-18T05:03:52.193Z,5.83
2019-05-18T05:05:29.473Z,5.30
2019-05-18T05:07:06.939Z,5.37
2019-05-18T05:08:43.608Z,5.60
2019-05-18T05:10:21.171Z,5.63
2019-05-18T05:11:57.775Z,5.63
2019-05-18T05:13:34.925Z,5.67
2019-05-18T05:15:11.727Z,6.20
2019-05-18T05:16:49.154Z,5.63
2019-05-18T05:18:25.514Z,5.83
2019-05-18T05:20:01.978Z,6.83
2019-05-18T05:21:39.082Z,7.17
2019-05-18T05:23:16.684Z,5.63
2019-05-18T05:24:53.332Z,5.80
2019-05-18T05:26:30.954Z,5.53
2019-05-18T05:28:07.594Z,5.80
2019-05-18T05:29:45.119Z,5.67
2019-05-18T05:31:21.551Z,5.70
2019-05-18T05:32:59.146Z,5.73
2019-05-18T05:34:35.871Z,6.10
2019-05-18T05:36:12.992Z,5.67
2019-05-18T05:37:48.858Z,5.43
2019-05-18T05:39:26.169Z,5.83
2019-05-18T05:41:03.717Z,5.57
2019-05-18T05:42:41.939Z,6.30
2019-05-18T05:44:18.734Z,5.90
2019-05-18T05:45:56.769Z,6.67
2019-05-18T05:47:33.538Z,5.90
2019-05-18T05:49:11.049Z,5.73
2019-05-18T05:50:47.742Z,6.27
2019-05-18T05:52:25.255Z,5.93
2019-05-18T05:54:02.815Z,5.60
2019-05-18T05:55:40.313Z,6.40
2019-05-18T05:57:19.723Z,6.57
2019-05-18T05:58:56.826Z,6.13
2019-05-18T06:00:34.116Z,6.33
2019-05-18T06:02:11.568Z,6.13
2019-05-18T06:03:48.374Z,6.57
2019-05-18T06:05:25.958Z,5.97
2019-05-18T06:07:02.875Z,6.20
2019-05-18T06:08:40.101Z,6.50
2019-05-18T06:10:16.808Z,6.93
2019-05-18T06:11:54.019Z,5.57
2019-05-18T06:13:30.489Z,6.63
2019-05-18T06:15:11.127Z,6.40
2019-05-18T06:16:48.061Z,5.47
2019-05-18T06:18:25.292Z,6.63
2019-05-18T06:20:01.852Z,5.90
2019-05-18T06:21:39.366Z,6.20
2019-05-18T06:23:15.836Z,5.83
2019-05-18T06:24:53.038Z,5.97
2019-05-18T06:26:29.505Z,6.13
2019-05-18T06:28:07.082Z,7.33
2019-05-18T06:29:44.425Z,7.20
2019-05-18T06:31:23.235Z,6.60
2019-05-18T06:32:59.935Z,7.20
2019-05-18T06:34:37.328Z,7.03
2019-05-18T06:36:13.749Z,6.70
2019-05-18T06:37:51.304Z,6.80
2019-05-18T06:39:27.894Z,6.57
2019-05-18T06:41:05.133Z,6.30
2019-05-18T06:42:42.568Z,6.47
2019-05-18T06:44:19.915Z,7.00
2019-05-18T06:45:56.856Z,6.80
2019-05-18T06:47:34.215Z,6.47
2019-05-18T06:49:10.808Z,7.20
2019-05-18T06:50:48.538Z,7.40
2019-05-18T06:52:25.497Z,7.27
2019-05-18T06:54:03.373Z,7.83
2019-05-18T06:55:41.079Z,8.10
2019-05-18T06:57:19.569Z,7.70
2019-05-18T06:59:00.247Z,6.97
2019-05-18T07:00:37.435Z,6.67
2019-05-18T07:02:13.977Z,6.13
2019-05-18T07:03:51.708Z,4.90
2019-05-18T07:05:31.355Z,5.13
2019-05-18T07:07:08.647Z,5.77
2019-05-18T07:08:45.489Z,5.40
2019-05-18T07:10:22.889Z,5.30
2019-05-18T07:12:01.156Z,5.53
2019-05-18T07:13:45.781Z,5.23
2019-05-18T07:15:24.006Z,5.07
2019-05-18T07:17:00.912Z,4.57
2019-05-18T07:18:38.198Z,4.47
2019-05-18T07:20:15.878Z,4.50
2019-05-18T07:21:53.062Z,4.97
2019-05-18T07:23:29.834Z,5.90
2019-05-18T07:25:11.220Z,5.13
2019-05-18T07:26:48.510Z,5.73
2019-05-18T07:28:25.352Z,5.13
2019-05-18T07:30:03.027Z,5.77
2019-05-18T07:31:40.885Z,5.50
2019-05-18T07:33:18.726Z,5.10
2019-05-18T07:34:55.531Z,5.40
2019-05-18T07:36:33.321Z,5.50
2019-05-18T07:38:09.871Z,6.70
2019-05-18T07:39:47.558Z,5.97
2019-05-18T07:41:24.532Z,5.27
2019-05-18T07:43:02.218Z,6.83
2019-05-18T07:44:39.344Z,5.20
2019-05-18T07:46:17.066Z,5.27
2019-05-18T07:47:53.474Z,6.00
2019-05-18T07:49:31.146Z,5.43
2019-05-18T07:51:07.796Z,5.80
2019-05-18T07:52:46.041Z,6.10
2019-05-18T07:54:22.657Z,5.03
2019-05-18T07:55:59.874Z,5.80
2019-05-18T07:57:37.227Z,7.20
2019-05-18T07:59:14.334Z,5.53
2019-05-18T08:00:50.798Z,5.73
2019-05-18T08:02:28.007Z,5.70
2019-05-18T08:04:04.948Z,5.27
2019-05-18T08:05:42.228Z,4.70
2019-05-18T08:07:18.686Z,5.30
2019-05-18T08:08:56.150Z,5.10
2019-05-18T08:10:43.627Z,5.57
2019-05-18T08:12:19.962Z,5.20
2019-05-18T08:13:57.132Z,5.13
2019-05-18T08:15:36.655Z,4.50
2019-05-18T08:17:14.222Z,5.43
2019-05-18T08:18:51.644Z,5.20
2019-05-18T08:20:28.809Z,4.77
2019-05-18T08:22:07.072Z,5.60
2019-05-18T08:23:44.195Z,4.50
2019-05-18T08:25:21.027Z,6.60
2019-05-18T08:27:01.553Z,5.50
2019-05-18T08:28:36.511Z,4.87
2019-05-18T08:30:13.784Z,6.13
2019-05-18T08:31:50.516Z,7.87
2019-05-18T08:33:27.801Z,5.57
2019-05-18T08:35:05.417Z,4.80
2019-05-18T08:36:42.460Z,4.97
2019-05-18T08:38:18.989Z,4.83
2019-05-18T08:39:56.187Z,4.77
2019-05-18T08:41:33.124Z,5.40
2019-05-18T08:43:10.876Z,5.13
2019-05-18T08:44:47.412Z,4.80
2019-05-18T08:46:24.506Z,5.23
2019-05-18T08:48:00.982Z,4.70
2019-05-18T08:49:38.146Z,5.30
2019-05-18T08:51:14.736Z,4.80
2019-05-18T08:52:52.304Z,5.17
2019-05-18T08:54:28.775Z,3.90
2019-05-18T08:56:06.415Z,4.73
2019-05-18T08:57:42.849Z,4.80
2019-05-18T08:59:20.062Z,4.80
2019-05-18T09:00:56.890Z,4.27
2019-05-18T09:02:34.731Z,5.03
2019-05-18T09:04:11.029Z,4.80
2019-05-18T09:05:48.219Z,4.80
2019-05-18T09:07:24.669Z,4.70
2019-05-18T09:09:02.007Z,5.27
2019-05-18T09:10:39.411Z,4.67
2019-05-18T09:12:18.451Z,4.67
2019-05-18T09:13:55.375Z,4.93
2019-05-18T09:15:32.961Z,4.77
2019-05-18T09:17:09.478Z,4.80
2019-05-18T09:18:49.844Z,4.17
2019-05-18T09:20:26.346Z,4.73
2019-05-18T09:22:03.452Z,4.07
2019-05-18T09:23:39.930Z,4.40
2019-05-18T09:25:17.958Z,4.70
2019-05-18T09:26:54.321Z,4.50
2019-05-18T09:28:31.833Z,3.97
2019-05-18T09:30:10.921Z,4.10
2019-05-18T09:31:48.109Z,4.30
2019-05-18T09:33:24.650Z,4.73
2019-05-18T09:35:02.820Z,4.43
2019-05-18T09:36:39.266Z,4.63
2019-05-18T09:38:16.614Z,4.70
2019-05-18T09:39:53.048Z,4.67
2019-05-18T09:41:30.492Z,5.20
2019-05-18T09:43:06.854Z,4.13
2019-05-18T09:44:45.091Z,5.07
2019-05-18T09:46:21.703Z,4.63
2019-05-18T09:47:59.863Z,4.60
2019-05-18T09:49:36.403Z,5.17
2019-05-18T09:51:14.450Z,5.17
2019-05-18T09:52:52.242Z,4.70
2019-05-18T09:54:29.483Z,5.30
2019-05-18T09:56:06.090Z,5.10
2019-05-18T09:57:44.351Z,5.13
2019-05-18T09:59:20.810Z,5.63
2019-05-18T10:00:58.054Z,5.10
2019-05-18T10:02:34.653Z,5.17
2019-05-18T10:04:11.848Z,5.40
2019-05-18T10:05:48.506Z,5.20
2019-05-18T10:07:28.072Z,5.40
2019-05-18T10:09:06.729Z,5.60
2019-05-18T10:10:44.319Z,5.13
2019-05-18T10:12:24.660Z,5.60
2019-05-18T10:14:00.494Z,4.83
2019-05-18T10:15:37.377Z,5.57
2019-05-18T10:17:15.038Z,4.83
2019-05-18T10:18:51.667Z,5.20
2019-05-18T10:20:28.843Z,5.10
2019-05-18T10:22:06.175Z,4.77
2019-05-18T10:23:43.439Z,5.97
2019-05-18T10:25:21.063Z,5.00
2019-05-18T10:26:58.242Z,4.80
2019-05-18T10:28:34.696Z,5.40
2019-05-18T10:30:14.230Z,4.97
2019-05-18T10:31:51.097Z,4.90
2019-05-18T10:33:28.428Z,5.27
2019-05-18T10:35:06.643Z,4.57
2019-05-18T10:36:43.806Z,5.77
2019-05-18T10:38:21.994Z,5.00
2019-05-18T10:39:59.381Z,4.80
2019-05-18T10:41:35.987Z,5.40
2019-05-18T10:43:13.202Z,5.43
2019-05-18T10:44:49.695Z,4.83
2019-05-18T10:46:26.825Z,5.50
2019-05-18T10:48:04.991Z,4.67
2019-05-18T10:49:42.168Z,5.37
2019-05-18T10:51:18.526Z,4.83
2019-05-18T10:52:55.813Z,4.80
2019-05-18T10:54:32.749Z,5.20
2019-05-18T10:56:09.298Z,4.93
2019-05-18T10:57:45.737Z,5.50
2019-05-18T10:59:23.136Z,4.80
2019-05-18T11:00:59.631Z,5.17
2019-05-18T11:02:37.334Z,5.20
2019-05-18T11:04:13.754Z,5.13
2019-05-18T11:05:51.150Z,5.17
2019-05-18T11:07:29.070Z,4.83
2019-05-18T11:09:08.124Z,5.50
2019-05-18T11:10:44.954Z,5.00
2019-05-18T11:12:22.428Z,4.80
2019-05-18T11:13:58.870Z,5.10
2019-05-18T11:15:36.522Z,5.00
2019-05-18T11:17:13.001Z,4.90
2019-05-18T11:18:51.226Z,5.20
2019-05-18T11:20:28.142Z,5.60
2019-05-18T11:22:05.429Z,5.50
2019-05-18T11:23:44.319Z,5.40
2019-05-18T11:25:21.521Z,5.27
2019-05-18T11:26:58.124Z,5.33
2019-05-18T11:28:35.667Z,5.23
2019-05-18T11:30:13.583Z,5.27
2019-05-18T11:31:51.411Z,5.40
2019-05-18T11:33:27.960Z,4.97
2019-05-18T11:35:06.501Z,5.60
2019-05-18T11:36:43.136Z,5.47
2019-05-18T11:38:20.336Z,6.77
2019-05-18T11:39:57.128Z,5.57
2019-05-18T11:41:35.326Z,5.47
2019-05-18T11:43:11.872Z,6.93
2019-05-18T11:44:49.458Z,7.37
2019-05-18T11:46:26.802Z,7.10
2019-05-18T11:48:04.071Z,4.53
2019-05-18T11:49:41.453Z,4.67
2019-05-18T11:51:19.695Z,4.90
2019-05-18T11:52:56.196Z,5.07
2019-05-18T11:54:33.898Z,5.63
2019-05-18T11:56:10.441Z,4.80
2019-05-18T11:57:47.597Z,5.03
2019-05-18T11:59:24.214Z,4.83
2019-05-18T12:01:01.545Z,4.87
2019-05-18T12:02:38.096Z,4.43
2019-05-18T12:04:15.247Z,5.07
2019-05-18T12:05:52.290Z,4.67
2019-05-18T12:07:29.390Z,4.20
2019-05-18T12:09:07.206Z,4.60
2019-05-18T12:10:44.798Z,4.63
2019-05-18T12:12:21.167Z,4.37
2019-05-18T12:13:58.364Z,4.17
2019-05-18T12:15:34.984Z,4.77
2019-05-18T12:17:12.164Z,4.10
2019-05-18T12:18:48.619Z,4.40
2019-05-18T12:20:26.617Z,4.07
2019-05-18T12:22:02.961Z,3.83
2019-05-18T12:23:41.166Z,3.57
2019-05-18T12:25:17.766Z,4.80
2019-05-18T12:26:54.797Z,3.90
2019-05-18T12:28:32.151Z,4.33
2019-05-18T12:30:11.923Z,3.90
2019-05-18T12:31:48.357Z,3.73
2019-05-18T12:33:26.018Z,3.80
2019-05-18T12:35:02.650Z,4.50
2019-05-18T12:36:40.178Z,3.67
2019-05-18T12:38:16.964Z,3.70
2019-05-18T12:39:55.142Z,4.60
2019-05-18T12:41:31.910Z,3.80
2019-05-18T12:43:09.027Z,3.47
2019-05-18T12:44:45.835Z,3.20
2019-05-18T12:46:23.067Z,3.50
2019-05-18T12:47:59.359Z,3.33
2019-05-18T12:49:36.473Z,4.10
2019-05-18T12:51:13.959Z,3.20
2019-05-18T12:52:53.924Z,3.37
2019-05-18T12:54:45.355Z,3.55
2019-05-18T12:56:09.321Z,3.42
2019-05-18T12:57:46.337Z,3.70
2019-05-18T12:59:23.586Z,3.70
2019-05-18T13:01:00.127Z,3.40
2019-05-18T13:02:37.529Z,3.43
2019-05-18T13:04:14.004Z,3.30
2019-05-18T13:05:51.257Z,3.47
2019-05-18T13:07:27.693Z,3.43
2019-05-18T13:09:07.636Z,3.60
2019-05-18T13:10:44.493Z,3.67
2019-05-18T13:12:21.668Z,3.47
2019-05-18T13:13:58.335Z,3.67
2019-05-18T13:15:35.666Z,3.57
2019-05-18T13:17:12.129Z,4.03
2019-05-18T13:18:49.011Z,3.33
2019-05-18T13:20:26.727Z,3.60
2019-05-18T13:22:03.970Z,3.70
2019-05-18T13:23:40.812Z,4.23
2019-05-18T13:25:19.152Z,3.43
2019-05-18T13:26:56.506Z,3.73
2019-05-18T13:28:34.173Z,4.00
2019-05-18T13:30:14.184Z,3.73
2019-05-18T13:31:51.449Z,3.40
2019-05-18T13:33:27.812Z,4.00
2019-05-18T13:35:08.797Z,3.50
2019-05-18T13:36:46.176Z,3.60
2019-05-18T13:38:22.621Z,3.40
2019-05-18T13:40:00.225Z,3.70
2019-05-18T13:41:37.645Z,3.77
2019-05-18T13:43:15.086Z,3.22
2019-05-18T13:44:51.358Z,3.75
2019-05-18T13:46:28.603Z,3.75
2019-05-18T13:48:05.322Z,3.90
2019-05-18T13:49:43.409Z,3.98
2019-05-18T13:51:19.883Z,3.72
2019-05-18T13:52:58.058Z,3.60
2019-05-18T13:54:34.515Z,3.33
2019-05-18T13:56:11.703Z,3.80
2019-05-18T13:57:48.334Z,4.40
2019-05-18T13:59:25.877Z,4.72
2019-05-18T14:01:02.421Z,4.10
2019-05-18T14:02:40.355Z,4.03
2019-05-18T14:04:16.731Z,5.03
2019-05-18T14:05:53.942Z,3.83
2019-05-18T14:07:30.851Z,4.00
2019-05-18T14:09:08.100Z,4.08
2019-05-18T14:10:45.053Z,4.40
2019-05-18T14:12:22.176Z,4.33
2019-05-18T14:13:58.593Z,4.17
2019-05-18T14:15:35.850Z,4.40
2019-05-18T14:17:12.222Z,4.33
2019-05-18T14:18:49.865Z,4.07
2019-05-18T14:20:26.670Z,4.00
2019-05-18T14:22:03.867Z,4.50
2019-05-18T14:23:40.843Z,5.20
2019-05-18T14:25:19.732Z,4.60
2019-05-18T14:26:56.741Z,4.73
2019-05-18T14:28:34.343Z,4.40
2019-05-18T14:30:12.589Z,4.40
2019-05-18T14:31:49.743Z,4.40
2019-05-18T14:33:27.114Z,4.17
2019-05-18T14:35:05.999Z,4.60
2019-05-18T14:36:42.441Z,4.13
2019-05-18T14:38:19.638Z,4.30
2019-05-18T14:39:58.483Z,4.53
2019-05-18T14:41:35.777Z,4.77
2019-05-18T14:43:12.442Z,4.03
2019-05-18T14:44:50.214Z,4.60
2019-05-18T14:46:27.568Z,4.33
2019-05-18T14:48:05.219Z,3.93
2019-05-18T14:49:42.254Z,4.60
2019-05-18T14:51:19.347Z,4.80
2019-05-18T14:52:56.313Z,4.97
2019-05-18T14:54:33.947Z,4.33
2019-05-18T14:56:10.880Z,4.70
2019-05-18T14:57:48.007Z,4.60
2019-05-18T14:59:24.407Z,4.20
2019-05-18T15:01:01.652Z,4.37
2019-05-18T15:02:39.147Z,4.40
2019-05-18T15:04:16.896Z,4.80
2019-05-18T15:05:54.307Z,4.33
2019-05-18T15:07:31.471Z,4.33
2019-05-18T15:09:08.295Z,4.10
2019-05-18T15:10:46.081Z,4.53
2019-05-18T15:12:22.558Z,4.57
2019-05-18T15:13:59.740Z,5.43
2019-05-18T15:15:36.547Z,4.63
2019-05-18T15:17:13.791Z,4.47
2019-05-18T15:18:50.842Z,4.27
2019-05-18T15:20:28.003Z,4.40
2019-05-18T15:22:04.607Z,4.10
2019-05-18T15:23:42.169Z,4.00
2019-05-18T15:25:18.701Z,4.00
2019-05-18T15:26:56.732Z,4.07
2019-05-18T15:28:33.743Z,4.10
2019-05-18T15:30:12.899Z,4.33
2019-05-18T15:31:49.610Z,4.90
2019-05-18T15:33:26.881Z,4.67
2019-05-18T15:35:04.718Z,4.90
2019-05-18T15:36:42.125Z,4.90
2019-05-18T15:38:17.854Z,5.07
2019-05-18T15:39:55.263Z,4.20
2019-05-18T15:41:32.025Z,4.60
2019-05-18T15:43:09.371Z,4.90
2019-05-18T15:44:45.737Z,4.87
2019-05-18T15:46:23.137Z,4.43
2019-05-18T15:47:59.894Z,4.80
2019-05-18T15:49:37.359Z,4.77
2019-05-18T15:51:14.804Z,4.80
2019-05-18T15:52:51.395Z,4.60
2019-05-18T15:54:28.112Z,4.17
2019-05-18T15:56:06.486Z,4.80
2019-05-18T15:57:43.266Z,5.40
2019-05-18T15:59:20.467Z,5.60
2019-05-18T16:00:57.079Z,5.60
2019-05-18T16:02:34.718Z,5.50
2019-05-18T16:04:11.296Z,5.47
2019-05-18T16:05:48.479Z,5.20
2019-05-18T16:07:25.288Z,4.57
2019-05-18T16:09:02.488Z,5.07
2019-05-18T16:10:41.990Z,5.83
2019-05-18T16:12:19.212Z,5.70
2019-05-18T16:13:55.746Z,5.27
2019-05-18T16:15:33.051Z,5.27
2019-05-18T16:17:10.416Z,5.93
2019-05-18T16:18:47.857Z,4.90
2019-05-18T16:20:23.901Z,5.57
2019-05-18T16:22:01.164Z,5.33
2019-05-18T16:23:37.727Z,8.50
2019-05-18T16:25:15.474Z,13.23
2019-05-18T16:26:55.487Z,8.47
2019-05-18T16:28:33.007Z,5.97
2019-05-18T16:30:11.723Z,5.17
2019-05-18T16:31:48.823Z,5.60
2019-05-18T16:33:25.663Z,5.73
2019-05-18T16:35:02.889Z,5.83
2019-05-18T16:36:39.887Z,6.23
2019-05-18T16:38:17.623Z,5.13
2019-05-18T16:39:54.148Z,6.23
2019-05-18T16:41:31.276Z,5.60
2019-05-18T16:43:08.211Z,6.30
2019-05-18T16:44:46.439Z,5.93
2019-05-18T16:46:23.090Z,6.97
2019-05-18T16:48:00.359Z,5.80
2019-05-18T16:49:37.720Z,6.17
2019-05-18T16:51:14.901Z,6.00
2019-05-18T16:52:51.858Z,6.03
2019-05-18T16:54:28.893Z,6.33
2019-05-18T16:56:05.503Z,6.50
2019-05-18T16:57:42.760Z,5.40
2019-05-18T16:59:19.206Z,5.53
2019-05-18T17:00:59.381Z,6.20
2019-05-18T17:02:36.032Z,6.13
2019-05-18T17:04:13.381Z,5.20
2019-05-18T17:05:50.883Z,4.83
2019-05-18T17:07:28.223Z,5.67
2019-05-18T17:09:06.413Z,5.70
2019-05-18T17:10:43.623Z,5.50
2019-05-18T17:12:20.163Z,5.13
2019-05-18T17:13:57.357Z,5.63
2019-05-18T17:15:33.822Z,5.80
2019-05-18T17:17:11.429Z,6.07
2019-05-18T17:18:47.775Z,5.63
2019-05-18T17:20:25.137Z,5.60
2019-05-18T17:22:02.053Z,5.53
2019-05-18T17:23:39.362Z,5.97
2019-05-18T17:25:15.890Z,5.50
2019-05-18T17:26:53.635Z,5.40
2019-05-18T17:28:30.361Z,5.20
2019-05-18T17:30:09.928Z,5.37
2019-05-18T17:31:46.359Z,5.63
2019-05-18T17:33:23.771Z,5.33
2019-05-18T17:35:03.137Z,6.03
2019-05-18T17:36:40.528Z,6.30
2019-05-18T17:38:17.538Z,6.03
2019-05-18T17:39:54.868Z,5.37
2019-05-18T17:41:31.225Z,5.10
2019-05-18T17:43:08.470Z,5.40
2019-05-18T17:44:44.985Z,5.60
2019-05-18T17:46:22.133Z,5.60
2019-05-18T17:47:58.611Z,5.87
2019-05-18T17:49:36.211Z,6.00
2019-05-18T17:51:12.570Z,5.77
2019-05-18T17:52:50.157Z,5.80
2019-05-18T17:54:26.619Z,5.63
2019-05-18T17:56:04.049Z,5.40
2019-05-18T17:57:40.558Z,5.63
2019-05-18T17:59:17.757Z,5.50
2019-05-18T18:00:55.224Z,5.20
2019-05-18T18:02:32.492Z,5.37
2019-05-18T18:04:08.859Z,5.10
2019-05-18T18:05:46.535Z,5.43
2019-05-18T18:07:23.566Z,5.50
2019-05-18T18:09:01.089Z,7.13
2019-05-18T18:10:37.589Z,20.30
2019-05-18T18:12:14.931Z,16.00
2019-05-18T18:13:51.692Z,15.90
2019-05-18T18:15:28.946Z,11.03
2019-05-18T18:17:05.455Z,9.53
2019-05-18T18:18:42.660Z,8.20
2019-05-18T18:20:19.864Z,8.30
2019-05-18T18:21:57.041Z,7.73
2019-05-18T18:23:33.706Z,9.70
2019-05-18T18:25:11.147Z,8.40
2019-05-18T18:26:47.585Z,7.93
2019-05-18T18:28:25.295Z,7.03
2019-05-18T18:30:01.874Z,6.30
2019-05-18T18:31:39.445Z,5.87
2019-05-18T18:33:16.878Z,6.47
2019-05-18T18:34:54.219Z,6.30
2019-05-18T18:36:30.755Z,5.67
2019-05-18T18:38:08.080Z,6.77
2019-05-18T18:39:45.472Z,7.10
2019-05-18T18:41:22.767Z,7.60
2019-05-18T18:42:59.310Z,5.90
2019-05-18T18:44:36.845Z,5.60
2019-05-18T18:46:13.360Z,5.97
2019-05-18T18:47:51.400Z,5.33
2019-05-18T18:49:27.773Z,5.73
2019-05-18T18:51:05.213Z,4.63
2019-05-18T18:52:41.620Z,5.07
2019-05-18T18:54:18.806Z,4.97
2019-05-18T18:55:55.484Z,5.53
2019-05-18T18:57:41.156Z,5.13
2019-05-18T18:59:10.806Z,5.63
2019-05-18T19:00:47.935Z,5.87
2019-05-18T19:02:24.430Z,5.37
2019-05-18T19:04:01.597Z,5.80
2019-05-18T19:05:38.209Z,8.23
2019-05-18T19:07:15.786Z,8.87
2019-05-18T19:08:52.161Z,9.67
2019-05-18T19:10:29.335Z,8.37
2019-05-18T19:12:06.053Z,9.30
2019-05-18T19:13:45.890Z,8.57
2019-05-18T19:15:22.709Z,9.63
2019-05-18T19:17:00.149Z,8.30
2019-05-18T19:18:36.846Z,7.93
2019-05-18T19:20:15.682Z,7.00
2019-05-18T19:21:52.195Z,6.43
2019-05-18T19:23:29.438Z,5.67
2019-05-18T19:25:06.755Z,6.30
2019-05-18T19:26:43.860Z,6.90
2019-05-18T19:28:20.904Z,6.53
2019-05-18T19:29:58.247Z,7.07
2019-05-18T19:31:34.723Z,6.80
2019-05-18T19:33:12.062Z,8.13
2019-05-18T19:34:48.459Z,7.30
2019-05-18T19:36:25.487Z,7.83
2019-05-18T19:38:02.080Z,7.43
2019-05-18T19:39:39.399Z,8.00
2019-05-18T19:41:15.866Z,8.67
2019-05-18T19:42:53.248Z,9.27
2019-05-18T19:44:30.682Z,8.50
2019-05-18T19:46:07.915Z,10.00
2019-05-18T19:47:45.810Z,9.17
2019-05-18T19:49:22.868Z,9.20
2019-05-18T19:51:00.292Z,10.03
2019-05-18T19:52:37.706Z,10.13
2019-05-18T19:54:14.225Z,10.70
2019-05-18T19:55:50.834Z,10.83
2019-05-18T19:57:27.230Z,11.67
2019-05-18T19:59:04.417Z,12.27
2019-05-18T20:00:40.931Z,14.17
2019-05-18T20:02:18.585Z,13.90
2019-05-18T20:03:55.393Z,11.40
2019-05-18T20:05:33.497Z,10.67
2019-05-18T20:07:10.009Z,10.60
2019-05-18T20:08:47.155Z,11.57
2019-05-18T20:10:24.214Z,11.13
2019-05-18T20:12:01.345Z,11.40
2019-05-18T20:13:37.856Z,11.17
2019-05-18T20:15:15.817Z,10.70
2019-05-18T20:16:52.349Z,10.13
2019-05-18T20:18:29.390Z,11.70
2019-05-18T20:20:10.131Z,10.90
2019-05-18T20:21:47.307Z,12.13
2019-05-18T20:23:23.788Z,11.43
2019-05-18T20:25:01.082Z,11.30
2019-05-18T20:26:37.998Z,11.23
2019-05-18T20:28:23.522Z,11.30
2019-05-18T20:29:53.234Z,11.10
2019-05-18T20:31:30.637Z,11.00
2019-05-18T20:33:07.028Z,10.63
2019-05-18T20:34:44.832Z,11.30
2019-05-18T20:36:21.300Z,10.83
2019-05-18T20:37:58.776Z,10.70
2019-05-18T20:39:36.379Z,11.73
2019-05-18T20:41:13.712Z,11.93
2019-05-18T20:42:50.406Z,11.73
2019-05-18T20:44:27.656Z,10.97
2019-05-18T20:46:04.599Z,11.77
2019-05-18T20:47:41.708Z,11.50
2019-05-18T20:49:18.269Z,10.63
2019-05-18T20:50:56.596Z,11.03
2019-05-18T20:52:33.210Z,11.20
2019-05-18T20:54:10.407Z,11.30
2019-05-18T20:55:46.945Z,11.73
2019-05-18T20:57:25.812Z,10.50
2019-05-18T20:59:02.439Z,10.97
2019-05-18T21:00:40.106Z,11.20
2019-05-18T21:02:16.924Z,11.60
2019-05-18T21:03:54.050Z,11.27
2019-05-18T21:05:30.696Z,11.33
2019-05-18T21:07:08.035Z,12.20
2019-05-18T21:08:44.658Z,11.70
2019-05-18T21:10:22.325Z,12.03
2019-05-18T21:11:58.979Z,11.03
2019-05-18T21:13:36.233Z,12.00
2019-05-18T21:15:13.379Z,11.23
2019-05-18T21:16:50.626Z,11.60
2019-05-18T21:18:27.185Z,10.33
2019-05-18T21:20:03.856Z,11.60
2019-05-18T21:21:40.920Z,11.47
2019-05-18T21:23:18.061Z,11.20
2019-05-18T21:24:54.559Z,11.37
2019-05-18T21:26:31.796Z,11.20
2019-05-18T21:28:09.531Z,10.63
2019-05-18T21:29:47.018Z,11.40